Time;durP1;ratioP1;P1;durP2;ratioP2;P2;SDS_P1;SDS_P2;PMS_P1;PMS_P2;Temp;Humidity;BMP_temperature;BMP_pressure;BME280_temperature;BME280_humidity;BME280_pressure;Samples;Min_cycle;Max_cycle;Signal;HPM_P1;HPM_P2
2021/05/26 00:01:19;;;;;;;1.67;1.50;;;10.40;1.00;;;;;;5022976;28;20422;-78
2021/05/26 00:03:46;;;;;;;2.17;1.65;;;10.40;1.00;;;;;;5023841;28;20285;-79
2021/05/26 00:06:13;;;;;;;1.80;1.30;;;10.40;1.00;;;;;;5019202;28;21622;-80
2021/05/26 00:08:40;;;;;;;1.38;1.20;;;10.40;1.00;;;;;;5026325;28;20236;-78
2021/05/26 00:11:08;;;;;;;3.85;1.65;;;10.30;1.00;;;;;;5022725;28;20230;-78
2021/05/26 00:13:35;;;;;;;4.40;1.75;;;10.20;1.00;;;;;;5031917;28;21142;-78
2021/05/26 00:16:02;;;;;;;1.45;1.30;;;10.20;1.00;;;;;;5025706;28;20226;-78
2021/05/26 00:18:28;;;;;;;2.03;1.27;;;10.20;1.00;;;;;;5015568;28;20246;-77
2021/05/26 00:20:54;;;;;;;2.83;1.52;;;10.20;1.00;;;;;;5014518;28;20331;-79
2021/05/26 00:23:22;;;;;;;3.10;2.08;;;10.20;1.00;;;;;;5020596;28;20396;-78
2021/05/26 00:25:49;;;;;;;1.95;1.40;;;10.20;1.00;;;;;;5034780;28;20218;-77
2021/05/26 00:28:16;;;;;;;3.83;1.60;;;10.20;1.00;;;;;;5041744;28;20277;-79
2021/05/26 00:30:45;;;;;;;1.52;1.27;;;10.20;1.00;;;;;;5018183;28;20226;-78
2021/05/26 00:33:12;;;;;;;1.80;1.27;;;10.20;1.00;;;;;;5035760;28;20248;-78
2021/05/26 00:35:38;;;;;;;1.42;1.20;;;10.20;1.00;;;;;;5035516;28;20246;-79
2021/05/26 00:38:04;;;;;;;1.85;1.20;;;10.20;1.00;;;;;;5043685;28;20215;-77
2021/05/26 00:40:33;;;;;;;2.30;1.48;;;10.20;1.00;;;;;;5040373;28;20294;-78
2021/05/26 00:43:00;;;;;;;2.13;1.23;;;10.20;1.00;;;;;;5041476;28;20229;-78
2021/05/26 00:45:26;;;;;;;2.50;1.50;;;10.20;1.00;;;;;;5039332;28;20228;-77
2021/05/26 00:48:20;;;;;;;1.63;1.38;;;10.20;1.00;;;;;;5040572;28;21152;-77
2021/05/26 00:50:50;;;;;;;1.58;1.20;;;10.20;1.00;;;;;;5042928;28;20213;-77
2021/05/26 00:53:16;;;;;;;1.60;1.33;;;10.10;1.00;;;;;;5031741;28;20222;-78
2021/05/26 00:55:44;;;;;;;1.42;1.30;;;10.10;1.00;;;;;;5030100;28;20223;-78
2021/05/26 00:58:11;;;;;;;1.73;1.40;;;10.10;1.00;;;;;;5032515;28;20213;-78
2021/05/26 01:00:39;;;;;;;1.65;1.27;;;10.20;1.00;;;;;;5044908;28;20270;-78
2021/05/26 01:03:21;;;;;;;2.10;1.38;;;10.20;1.00;;;;;;5049773;28;20221;-77
2021/05/26 01:05:47;;;;;;;2.60;1.55;;;10.20;1.00;;;;;;5050403;28;20273;-80
2021/05/26 01:08:16;;;;;;;1.45;1.23;;;10.20;1.00;;;;;;5045942;28;20227;-77
2021/05/26 01:10:43;;;;;;;2.92;1.25;;;10.30;1.00;;;;;;5039359;28;21068;-78
2021/05/26 01:13:24;;;;;;;1.90;1.30;;;10.30;1.00;;;;;;5038577;28;20305;-79
2021/05/26 01:15:57;;;;;;;1.55;1.30;;;10.20;1.00;;;;;;5041359;28;20341;-79
2021/05/26 01:18:25;;;;;;;2.13;1.70;;;10.20;1.00;;;;;;5030677;28;20729;-81
2021/05/26 01:20:56;;;;;;;5.28;1.50;;;10.20;1.00;;;;;;5028430;28;20242;-80
2021/05/26 01:23:23;;;;;;;2.33;1.35;;;10.10;1.00;;;;;;5026486;28;20242;-79
2021/05/26 01:25:54;;;;;;;2.53;1.58;;;10.10;1.00;;;;;;5032869;28;20230;-79
2021/05/26 01:28:21;;;;;;;1.50;1.23;;;10.10;1.00;;;;;;5027961;28;20219;-79
2021/05/26 01:30:47;;;;;;;1.52;1.35;;;10.10;1.00;;;;;;5026246;28;20253;-77
2021/05/26 01:33:14;;;;;;;1.42;1.33;;;10.10;1.00;;;;;;5025439;28;20313;-79
2021/05/26 01:35:41;;;;;;;1.80;1.60;;;10.20;1.00;;;;;;5010855;28;20231;-78
2021/05/26 01:38:11;;;;;;;5.85;1.95;;;10.20;1.00;;;;;;5029102;28;20215;-79
2021/05/26 01:40:38;;;;;;;1.63;1.35;;;10.20;1.00;;;;;;5033220;28;20239;-80
2021/05/26 01:43:04;;;;;;;9.30;1.75;;;10.20;1.00;;;;;;5029106;28;20254;-79
2021/05/26 01:45:31;;;;;;;2.50;1.52;;;10.10;1.00;;;;;;5032605;28;20210;-79
2021/05/26 01:47:57;;;;;;;3.78;1.70;;;10.20;1.00;;;;;;5031660;28;20219;-78
2021/05/26 01:50:24;;;;;;;1.90;1.35;;;10.20;1.00;;;;;;5036014;28;20278;-77
2021/05/26 01:52:52;;;;;;;1.58;1.48;;;10.20;1.00;;;;;;5036047;28;20884;-79
2021/05/26 01:55:19;;;;;;;2.58;1.50;;;10.20;1.00;;;;;;5029123;28;20266;-78
2021/05/26 01:57:46;;;;;;;1.60;1.42;;;10.20;1.00;;;;;;5032659;28;20222;-79
2021/05/26 02:00:15;;;;;;;1.75;1.65;;;10.20;1.00;;;;;;5016241;28;20804;-79
2021/05/26 02:02:41;;;;;;;1.70;1.60;;;10.10;1.00;;;;;;5023535;28;20303;-77
2021/05/26 02:05:09;;;;;;;6.18;2.00;;;10.20;1.00;;;;;;5022022;28;20245;-78
2021/05/26 02:07:36;;;;;;;2.83;1.55;;;10.20;1.00;;;;;;5025275;28;20238;-78
2021/05/26 02:10:03;;;;;;;2.35;1.60;;;10.20;1.00;;;;;;5042441;28;20554;-78
2021/05/26 02:12:33;;;;;;;2.38;1.77;;;10.20;1.00;;;;;;5036853;28;20309;-79
2021/05/26 02:15:01;;;;;;;2.60;1.50;;;10.20;1.00;;;;;;5020550;28;20234;-78
2021/05/26 02:17:28;;;;;;;2.28;1.40;;;10.20;1.00;;;;;;5032554;28;20226;-78
2021/05/26 02:19:54;;;;;;;3.00;1.70;;;10.20;1.00;;;;;;5032665;28;20216;-78
2021/05/26 02:22:21;;;;;;;2.92;1.30;;;10.20;1.00;;;;;;5031346;28;20284;-81
2021/05/26 02:24:49;;;;;;;2.50;1.95;;;10.20;1.00;;;;;;5010924;28;20247;-78
2021/05/26 02:27:15;;;;;;;2.33;1.50;;;10.20;1.00;;;;;;5028152;28;20333;-78
2021/05/26 02:29:42;;;;;;;2.85;1.58;;;10.10;1.00;;;;;;5030495;28;20227;-78
2021/05/26 02:32:09;;;;;;;2.70;1.80;;;10.10;1.00;;;;;;5034565;28;20243;-78
2021/05/26 02:34:36;;;;;;;1.55;1.42;;;10.10;1.00;;;;;;5032581;28;20233;-79
2021/05/26 02:37:03;;;;;;;2.10;1.73;;;10.10;1.00;;;;;;5030761;28;20244;-78
2021/05/26 02:39:29;;;;;;;3.38;1.65;;;10.00;1.00;;;;;;5034703;28;20239;-78
2021/05/26 02:41:56;;;;;;;3.55;1.80;;;10.00;1.00;;;;;;5026758;28;20264;-78
2021/05/26 02:44:22;;;;;;;2.60;1.83;;;9.90;1.00;;;;;;5033941;28;20359;-80
2021/05/26 02:46:49;;;;;;;3.22;1.98;;;9.90;1.00;;;;;;5027012;28;20258;-77
2021/05/26 02:49:17;;;;;;;2.10;1.60;;;9.90;1.00;;;;;;5026892;28;20252;-77
2021/05/26 02:51:43;;;;;;;2.25;1.85;;;9.80;1.00;;;;;;4999615;28;20556;-79
2021/05/26 02:54:11;;;;;;;2.40;1.85;;;9.80;1.00;;;;;;5025105;28;20289;-78
2021/05/26 02:56:38;;;;;;;2.00;1.80;;;9.80;1.00;;;;;;5023251;28;20233;-82
2021/05/26 02:59:06;;;;;;;4.15;1.90;;;9.80;1.00;;;;;;5026064;28;20228;-79
2021/05/26 03:01:33;;;;;;;3.58;1.85;;;9.80;1.00;;;;;;5017402;28;20297;-79
2021/05/26 03:03:59;;;;;;;2.70;2.10;;;9.80;1.00;;;;;;5023160;28;20231;-80
2021/05/26 03:06:26;;;;;;;2.30;2.00;;;9.80;1.00;;;;;;5020423;28;20339;-78
2021/05/26 03:08:53;;;;;;;3.00;1.92;;;9.80;1.00;;;;;;5015632;28;20335;-79
2021/05/26 03:11:19;;;;;;;1.88;1.77;;;9.80;1.00;;;;;;5018349;28;20412;-79
2021/05/26 03:13:45;;;;;;;3.00;2.28;;;9.90;1.00;;;;;;5017393;28;20246;-78
2021/05/26 03:16:12;;;;;;;2.88;2.20;;;9.90;1.00;;;;;;5022764;28;20278;-80
2021/05/26 03:18:43;;;;;;;2.53;2.15;;;9.90;1.00;;;;;;5029706;28;20224;-80
2021/05/26 03:21:09;;;;;;;3.35;1.90;;;9.90;1.00;;;;;;5039672;28;20266;-79
2021/05/26 03:23:36;;;;;;;3.42;2.55;;;10.00;1.00;;;;;;5026886;28;20223;-79
2021/05/26 03:26:03;;;;;;;3.55;2.20;;;10.00;1.00;;;;;;5044110;28;20266;-78
2021/05/26 03:28:29;;;;;;;4.25;2.35;;;10.10;1.00;;;;;;5039830;28;20213;-79
2021/05/26 03:30:55;;;;;;;2.30;2.10;;;10.10;1.00;;;;;;5039190;28;20227;-78
2021/05/26 03:33:22;;;;;;;5.13;2.03;;;10.10;1.00;;;;;;5020067;28;20234;-79
2021/05/26 03:35:48;;;;;;;2.40;2.20;;;10.10;1.00;;;;;;5018105;28;20226;-79
2021/05/26 03:38:15;;;;;;;2.00;1.73;;;10.10;1.00;;;;;;5019850;28;20302;-78
2021/05/26 03:40:43;;;;;;;2.40;2.10;;;10.20;1.00;;;;;;5033600;28;20312;-81
2021/05/26 03:43:10;;;;;;;2.28;1.98;;;10.20;1.00;;;;;;5034222;28;20228;-78
2021/05/26 03:45:36;;;;;;;2.60;2.13;;;10.20;1.00;;;;;;5032301;28;20214;-79
2021/05/26 03:48:03;;;;;;;5.45;2.80;;;10.30;1.00;;;;;;5019918;28;20228;-78
2021/05/26 03:50:30;;;;;;;2.67;2.17;;;10.30;1.00;;;;;;5018256;28;23364;-79
2021/05/26 03:52:57;;;;;;;2.35;2.15;;;10.30;1.00;;;;;;5020134;28;20635;-81
2021/05/26 03:55:25;;;;;;;3.13;2.10;;;10.40;1.00;;;;;;5018703;28;22870;-80
2021/05/26 03:57:52;;;;;;;3.53;2.15;;;10.40;1.00;;;;;;5037543;28;20498;-77
2021/05/26 04:00:21;;;;;;;4.75;4.28;;;10.30;1.00;;;;;;5025623;28;20226;-80
2021/05/26 04:02:48;;;;;;;2.40;2.20;;;10.40;1.00;;;;;;5019385;28;20265;-79
2021/05/26 04:05:15;;;;;;;5.97;2.60;;;10.40;1.00;;;;;;5020622;28;21414;-79
2021/05/26 04:07:42;;;;;;;2.30;1.85;;;10.30;1.00;;;;;;5016983;28;20904;-79
2021/05/26 04:10:09;;;;;;;3.17;1.90;;;10.40;1.00;;;;;;5012959;28;21173;-79
2021/05/26 04:12:36;;;;;;;5.10;4.30;;;10.40;1.00;;;;;;5020289;28;20301;-77
2021/05/26 04:15:04;;;;;;;3.80;2.78;;;10.40;1.00;;;;;;5021732;28;20232;-79
2021/05/26 04:17:30;;;;;;;4.15;3.10;;;10.40;1.00;;;;;;5018869;28;20236;-78
2021/05/26 04:20:02;;;;;;;2.30;2.10;;;10.50;1.00;;;;;;5027980;28;20226;-79
2021/05/26 04:22:28;;;;;;;3.70;2.22;;;10.60;1.00;;;;;;5025760;28;20461;-79
2021/05/26 04:24:55;;;;;;;2.05;1.92;;;10.70;1.00;;;;;;5020444;28;20325;-78
2021/05/26 04:27:21;;;;;;;2.53;2.33;;;10.70;1.00;;;;;;5021343;28;20220;-79
2021/05/26 04:29:47;;;;;;;3.50;2.72;;;10.70;1.00;;;;;;5022983;28;21341;-78
2021/05/26 04:32:14;;;;;;;2.58;2.38;;;10.80;1.00;;;;;;5001068;28;20235;-78
2021/05/26 04:34:41;;;;;;;3.65;2.85;;;10.70;1.00;;;;;;5020926;28;20222;-79
2021/05/26 04:37:07;;;;;;;4.30;3.00;;;10.70;1.00;;;;;;5017614;28;20355;-77
2021/05/26 04:39:33;;;;;;;2.47;2.25;;;10.70;1.00;;;;;;5021222;28;20343;-79
2021/05/26 04:41:59;;;;;;;2.90;2.60;;;10.70;1.00;;;;;;5018787;28;20239;-78
2021/05/26 04:44:26;;;;;;;3.00;2.70;;;10.70;1.00;;;;;;5039619;28;20270;-79
2021/05/26 04:46:52;;;;;;;4.65;2.70;;;10.70;1.00;;;;;;5021579;28;21335;-79
2021/05/26 04:49:19;;;;;;;3.30;3.00;;;10.80;1.00;;;;;;5017569;28;20278;-79
2021/05/26 04:51:45;;;;;;;3.80;2.70;;;10.70;1.00;;;;;;5023460;28;20443;-81
2021/05/26 04:54:11;;;;;;;2.70;2.50;;;10.60;1.00;;;;;;5021244;28;20236;-78
2021/05/26 04:56:37;;;;;;;6.43;3.35;;;10.50;1.00;;;;;;5027387;28;20852;-79
2021/05/26 04:59:04;;;;;;;4.25;3.45;;;10.50;1.00;;;;;;5029359;28;20232;-78
2021/05/26 05:01:30;;;;;;;5.82;3.00;;;10.50;1.00;;;;;;5035235;28;20247;-78
2021/05/26 05:03:56;;;;;;;5.03;3.20;;;10.50;1.00;;;;;;5032879;28;21164;-77
2021/05/26 05:06:23;;;;;;;3.37;3.07;;;10.70;1.00;;;;;;5024772;28;20456;-77
2021/05/26 05:08:50;;;;;;;3.33;3.00;;;10.80;1.00;;;;;;5022445;28;20446;-77
2021/05/26 05:11:16;;;;;;;7.53;3.40;;;10.90;1.00;;;;;;5019960;28;20241;-79
2021/05/26 05:13:43;;;;;;;3.70;2.70;;;10.90;1.00;;;;;;5022678;28;20308;-80
2021/05/26 05:16:09;;;;;;;4.63;3.10;;;11.00;1.00;;;;;;5026607;28;20547;-79
2021/05/26 05:18:35;;;;;;;3.23;2.70;;;11.10;1.00;;;;;;5026887;28;20456;-80
2021/05/26 05:21:02;;;;;;;5.32;3.65;;;11.20;1.00;;;;;;5028431;28;20452;-80
2021/05/26 05:23:29;;;;;;;6.43;2.83;;;11.20;1.00;;;;;;5031323;28;20965;-79
2021/05/26 05:25:55;;;;;;;6.07;3.00;;;11.20;1.00;;;;;;5040166;28;20440;-80
2021/05/26 05:28:22;;;;;;;6.95;3.22;;;11.20;1.00;;;;;;5029889;28;21365;-80
2021/05/26 05:30:48;;;;;;;2.90;2.60;;;11.30;1.00;;;;;;5011781;28;20245;-80
2021/05/26 05:33:14;;;;;;;5.17;3.17;;;11.20;1.00;;;;;;5034811;28;20709;-79
2021/05/26 05:35:40;;;;;;;4.00;3.17;;;11.20;1.00;;;;;;5037273;28;20535;-80
2021/05/26 05:38:06;;;;;;;3.50;2.83;;;11.40;1.00;;;;;;5031058;28;21164;-80
2021/05/26 05:40:33;;;;;;;2.80;2.40;;;11.60;1.00;;;;;;5030166;28;20512;-81
2021/05/26 05:43:00;;;;;;;5.10;3.30;;;11.70;1.00;;;;;;5029309;28;20243;-81
2021/05/26 05:45:26;;;;;;;3.60;2.72;;;11.80;1.00;;;;;;5037713;28;20427;-79
2021/05/26 05:47:52;;;;;;;4.87;3.67;;;11.90;1.00;;;;;;5029671;28;20222;-77
2021/05/26 05:50:19;;;;;;;6.13;3.13;;;12.00;1.00;;;;;;5018866;28;22028;-75
2021/05/26 05:52:48;;;;;;;4.30;2.53;;;12.10;1.00;;;;;;5022131;28;20298;-76
2021/05/26 05:55:16;;;;;;;7.63;3.70;;;12.30;1.00;;;;;;5017472;28;20434;-77
2021/05/26 05:57:43;;;;;;;7.03;3.60;;;12.40;1.00;;;;;;5015745;28;21128;-76
2021/05/26 06:00:11;;;;;;;3.50;3.20;;;12.40;1.00;;;;;;5016971;28;20421;-79
2021/05/26 06:02:37;;;;;;;4.17;2.80;;;12.60;1.00;;;;;;5015911;28;20465;-78
2021/05/26 06:05:04;;;;;;;2.83;2.50;;;12.70;1.00;;;;;;5014949;28;20457;-75
2021/05/26 06:07:30;;;;;;;3.30;3.00;;;12.60;1.00;;;;;;5016036;28;20462;-77
2021/05/26 06:09:57;;;;;;;2.67;2.47;;;12.50;1.00;;;;;;5017357;28;20473;-75
2021/05/26 06:12:23;;;;;;;3.47;3.00;;;12.40;1.00;;;;;;5020153;28;20225;-79
2021/05/26 06:14:51;;;;;;;5.40;3.90;;;12.30;1.00;;;;;;4995963;28;21033;-79
2021/05/26 06:17:17;;;;;;;7.10;6.17;;;12.30;1.00;;;;;;5027988;28;20485;-80
2021/05/26 06:19:43;;;;;;;5.50;3.93;;;12.40;1.00;;;;;;5020697;28;20548;-80
2021/05/26 06:22:09;;;;;;;3.40;3.10;;;12.50;1.00;;;;;;5024920;28;20429;-80
2021/05/26 06:24:36;;;;;;;4.67;2.97;;;12.60;1.00;;;;;;5023069;28;20541;-77
2021/05/26 06:27:02;;;;;;;5.27;3.53;;;12.80;1.00;;;;;;5027702;28;20640;-78
2021/05/26 06:29:28;;;;;;;3.77;3.00;;;12.80;1.00;;;;;;5025884;28;20539;-78
2021/05/26 06:31:56;;;;;;;3.60;3.30;;;12.70;1.00;;;;;;5024107;28;21276;-79
2021/05/26 06:34:22;;;;;;;3.23;3.03;;;12.70;1.00;;;;;;5039548;28;20654;-80
2021/05/26 06:36:48;;;;;;;2.97;2.60;;;12.70;1.00;;;;;;5031637;28;20444;-81
2021/05/26 06:39:14;;;;;;;5.17;3.30;;;12.80;1.00;;;;;;5029401;28;20454;-79
2021/05/26 06:41:41;;;;;;;5.50;2.40;;;12.90;1.00;;;;;;5021285;28;21372;-82
2021/05/26 06:44:07;;;;;;;5.13;3.13;;;12.90;1.00;;;;;;5020501;28;20430;-77
2021/05/26 06:46:33;;;;;;;3.20;2.47;;;13.00;1.00;;;;;;5015843;28;20438;-78
2021/05/26 06:49:00;;;;;;;5.30;3.07;;;13.20;1.00;;;;;;5018937;28;20915;-78
2021/05/26 06:51:27;;;;;;;3.80;3.50;;;13.20;1.00;;;;;;5015804;28;20422;-77
2021/05/26 06:53:55;;;;;;;2.93;2.63;;;13.30;1.00;;;;;;4999956;28;20457;-77
2021/05/26 06:56:21;;;;;;;2.20;2.10;;;13.40;1.00;;;;;;5019526;28;20458;-79
2021/05/26 06:58:48;;;;;;;3.70;2.60;;;13.80;1.00;;;;;;5014809;28;20440;-79
2021/05/26 07:01:14;;;;;;;2.87;2.47;;;13.90;1.00;;;;;;5017122;28;20451;-77
2021/05/26 07:03:40;;;;;;;2.90;2.50;;;14.10;1.00;;;;;;4997845;28;21173;-78
2021/05/26 07:06:08;;;;;;;3.23;2.57;;;14.10;1.00;;;;;;5017551;28;21182;-79
2021/05/26 07:08:34;;;;;;;2.20;2.00;;;14.00;1.00;;;;;;5019414;28;20488;-79
2021/05/26 07:11:00;;;;;;;3.93;2.60;;;13.90;1.00;;;;;;5019307;28;20484;-81
2021/05/26 07:13:26;;;;;;;3.87;2.60;;;13.90;1.00;;;;;;5021757;28;20457;-78
2021/05/26 07:15:52;;;;;;;5.00;3.37;;;13.80;1.00;;;;;;5015571;28;20469;-77
2021/05/26 07:18:19;;;;;;;2.30;2.10;;;13.80;1.00;;;;;;5015712;28;20441;-78
2021/05/26 07:20:47;;;;;;;2.73;2.47;;;13.90;1.00;;;;;;5015771;28;20458;-80
2021/05/26 07:23:14;;;;;;;7.00;6.43;;;13.90;1.00;;;;;;5014531;28;20464;-78
2021/05/26 07:25:41;;;;;;;3.67;3.47;;;14.10;1.00;;;;;;5017127;28;20451;-79
2021/05/26 07:28:08;;;;;;;6.07;3.57;;;14.30;1.00;;;;;;5016482;28;20961;-77
2021/05/26 07:30:34;;;;;;;3.67;3.00;;;14.30;1.00;;;;;;5017202;28;21074;-79
2021/05/26 07:33:01;;;;;;;5.90;2.90;;;14.40;1.00;;;;;;4995365;28;20445;-79
2021/05/26 07:35:27;;;;;;;3.97;2.67;;;14.50;1.00;;;;;;5019845;28;20500;-78
2021/05/26 07:37:53;;;;;;;2.80;2.50;;;14.50;1.00;;;;;;5017306;28;20438;-77
2021/05/26 07:40:20;;;;;;;3.00;2.67;;;14.50;1.00;;;;;;5000093;28;20434;-77
2021/05/26 07:42:47;;;;;;;2.30;2.10;;;14.50;1.00;;;;;;5019069;28;21631;-78
2021/05/26 07:45:13;;;;;;;5.77;3.10;;;14.60;1.00;;;;;;5001477;28;20473;-78
2021/05/26 07:47:40;;;;;;;4.67;2.63;;;14.60;1.00;;;;;;5018053;28;20541;-77
2021/05/26 07:50:07;;;;;;;4.60;2.83;;;14.80;1.00;;;;;;5029638;28;20656;-78
2021/05/26 07:52:33;;;;;;;2.53;2.33;;;15.00;1.00;;;;;;5023843;28;20412;-76
2021/05/26 07:54:59;;;;;;;3.70;2.77;;;15.00;1.00;;;;;;5030875;28;20473;-77
2021/05/26 07:57:27;;;;;;;6.27;3.03;;;15.10;1.00;;;;;;5011270;28;20449;-77
2021/05/26 07:59:53;;;;;;;3.40;2.80;;;15.20;1.00;;;;;;5015909;28;20537;-76
2021/05/26 08:02:19;;;;;;;3.07;2.53;;;15.40;1.00;;;;;;5016900;28;20634;-77
2021/05/26 08:04:48;;;;;;;3.17;2.60;;;15.60;1.00;;;;;;5016960;28;20462;-78
2021/05/26 08:07:14;;;;;;;2.83;2.57;;;15.70;1.00;;;;;;5024200;28;21667;-77
2021/05/26 08:09:40;;;;;;;3.13;2.27;;;15.80;1.00;;;;;;5028222;28;20725;-79
2021/05/26 08:12:08;;;;;;;5.80;2.83;;;15.90;1.00;;;;;;5019010;28;20465;-78
2021/05/26 08:14:36;;;;;;;4.33;2.60;;;15.80;1.00;;;;;;5023280;28;20450;-77
2021/05/26 08:17:03;;;;;;;3.00;2.70;;;15.70;1.00;;;;;;5007893;28;20529;-78
2021/05/26 08:19:29;;;;;;;4.53;2.70;;;15.70;1.00;;;;;;5038568;28;20525;-77
2021/05/26 08:21:55;;;;;;;3.37;2.57;;;15.70;1.00;;;;;;5045107;28;20476;-78
2021/05/26 08:24:22;;;;;;;2.50;2.30;;;15.50;1.00;;;;;;5028866;28;20560;-76
2021/05/26 08:26:51;;;;;;;5.00;2.53;;;15.50;1.00;;;;;;5028024;28;20429;-79
2021/05/26 08:29:18;;;;;;;4.37;2.30;;;15.60;1.00;;;;;;5049061;28;20464;-77
2021/05/26 08:31:45;;;;;;;4.90;2.73;;;15.80;1.00;;;;;;5052256;28;20555;-76
2021/05/26 08:34:11;;;;;;;4.23;2.57;;;15.90;1.00;;;;;;5049922;28;21282;-80
2021/05/26 08:36:38;;;;;;;4.17;2.80;;;16.00;1.00;;;;;;5056749;28;20421;-80
2021/05/26 08:39:04;;;;;;;1.97;1.63;;;15.70;1.00;;;;;;5057060;28;20421;-81
2021/05/26 08:41:31;;;;;;;3.50;2.00;;;15.40;1.00;;;;;;5055836;28;20455;-81
2021/05/26 08:43:57;;;;;;;2.67;2.10;;;15.20;1.00;;;;;;5057435;28;20417;-80
2021/05/26 08:46:24;;;;;;;6.43;2.43;;;15.20;1.00;;;;;;5058762;28;20409;-80
2021/05/26 08:48:53;;;;;;;4.00;2.40;;;15.20;1.00;;;;;;5057047;28;20433;-80
2021/05/26 08:51:21;;;;;;;2.03;1.83;;;15.20;1.00;;;;;;5054893;28;20416;-80
2021/05/26 08:53:48;;;;;;;2.33;2.13;;;15.20;1.00;;;;;;5055818;28;20475;-81
2021/05/26 08:56:15;;;;;;;2.17;1.67;;;15.10;1.00;;;;;;5048871;28;20424;-79
2021/05/26 08:58:42;;;;;;;2.17;1.50;;;15.00;1.00;;;;;;5046145;28;20480;-80
2021/05/26 09:01:09;;;;;;;3.83;2.17;;;14.90;1.00;;;;;;5031852;28;20472;-81
2021/05/26 09:03:41;;;;;;;3.07;2.50;;;14.60;1.00;;;;;;5050379;28;20484;-81
2021/05/26 09:06:14;;;;;;;3.10;2.50;;;14.40;1.00;;;;;;5043261;28;20605;-81
2021/05/26 09:08:49;;;;;;;3.20;2.30;;;14.10;1.00;;;;;;5042265;28;20418;-81
2021/05/26 09:11:16;;;;;;;2.63;1.70;;;14.00;1.00;;;;;;5041811;28;20516;-82
2021/05/26 09:13:43;;;;;;;6.30;2.10;;;14.10;1.00;;;;;;5010173;28;20453;-80
2021/05/26 09:16:29;;;;;;;5.70;2.37;;;14.30;1.00;;;;;;5030910;28;20477;-80
2021/05/26 09:19:00;;;;;;;2.50;2.23;;;14.60;1.00;;;;;;5035474;28;20421;-80
2021/05/26 09:21:41;;;;;;;6.10;2.60;;;15.20;1.00;;;;;;5043461;28;20436;-78
2021/05/26 09:24:29;;;;;;;10.63;5.20;;;16.00;1.00;;;;;;5038759;28;20446;-81
2021/05/26 09:26:58;;;;;;;2.53;1.70;;;16.40;1.00;;;;;;5025888;28;20447;-80
2021/05/26 09:29:24;;;;;;;4.17;2.10;;;16.80;1.00;;;;;;5025279;28;20453;-83
2021/05/26 09:31:54;;;;;;;3.37;2.03;;;17.00;1.00;;;;;;5025660;28;20454;-81
2021/05/26 09:34:36;;;;;;;2.70;2.00;;;16.90;1.00;;;;;;5025264;28;20493;-80
2021/05/26 09:37:03;;;;;;;4.00;1.83;;;16.60;1.00;;;;;;5011944;28;20462;-79
2021/05/26 09:39:47;;;;;;;4.63;1.70;;;16.50;1.00;;;;;;5028446;28;20454;-79
2021/05/26 09:42:33;;;;;;;4.23;1.90;;;16.20;1.00;;;;;;5034686;28;20436;-79
2021/05/26 09:45:05;;;;;;;5.90;1.87;;;16.00;1.00;;;;;;5026822;28;20457;-80
2021/05/26 09:47:36;;;;;;;4.23;1.73;;;16.00;1.00;;;;;;5029982;28;20482;-78
2021/05/26 09:50:23;;;;;;;5.80;2.00;;;16.10;1.00;;;;;;5032617;28;20464;-78
2021/05/26 09:52:56;;;;;;;2.60;1.47;;;16.10;1.00;;;;;;5025274;28;20409;-79
2021/05/26 09:55:25;;;;;;;2.70;1.63;;;16.00;1.00;;;;;;5029027;28;20584;-78
2021/05/26 09:57:53;;;;;;;2.30;1.53;;;15.90;1.00;;;;;;5024383;28;20500;-77
2021/05/26 10:00:21;;;;;;;3.07;2.00;;;16.00;1.00;;;;;;5027992;28;20515;-79
2021/05/26 10:02:48;;;;;;;2.60;2.40;;;16.40;1.00;;;;;;5024993;28;23369;-75
2021/05/26 10:05:16;;;;;;;2.27;1.80;;;16.80;1.00;;;;;;5029289;28;20454;-75
2021/05/26 10:07:44;;;;;;;3.13;1.70;;;17.50;1.00;;;;;;5027599;28;20453;-77
2021/05/26 10:10:12;;;;;;;4.43;1.90;;;18.60;1.00;;;;;;5028501;28;22782;-75
2021/05/26 10:12:39;;;;;;;2.63;1.90;;;19.20;1.00;;;;;;5041210;28;20408;-81
2021/05/26 10:15:08;;;;;;;3.10;1.83;;;19.20;1.00;;;;;;5046565;28;20428;-83
2021/05/26 10:17:38;;;;;;;4.90;1.90;;;18.90;1.00;;;;;;5038886;28;20438;-80
2021/05/26 10:20:11;;;;;;;4.10;2.10;;;18.30;1.00;;;;;;5049082;28;20474;-85
2021/05/26 10:22:38;;;;;;;4.47;1.97;;;17.80;1.00;;;;;;5046872;28;20446;-81
2021/05/26 10:25:06;;;;;;;4.10;1.87;;;17.60;1.00;;;;;;5048307;28;20484;-81
2021/05/26 10:27:39;;;;;;;5.27;2.13;;;17.70;1.00;;;;;;5050719;28;20451;-83
2021/05/26 10:30:07;;;;;;;4.30;2.20;;;17.70;1.00;;;;;;5041042;28;20443;-82
2021/05/26 10:32:54;;;;;;;4.07;2.27;;;17.60;1.00;;;;;;5043947;28;20538;-83
2021/05/26 10:35:21;;;;;;;3.27;2.13;;;17.30;1.00;;;;;;5020624;28;20419;-84
2021/05/26 10:37:57;;;;;;;5.73;2.80;;;16.80;1.00;;;;;;5031186;28;20434;-82
2021/05/26 10:40:37;;;;;;;2.87;2.40;;;15.70;1.00;;;;;;5035134;28;20592;-82
2021/05/26 10:43:35;;;;;;;4.27;2.57;;;14.30;1.00;;;;;;5037852;28;20524;-80
2021/05/26 10:46:04;;;;;;;4.03;2.50;;;13.40;1.00;;;;;;5013345;28;20462;-83
2021/05/26 10:49:03;;;;;;;3.00;2.17;;;13.10;1.00;;;;;;5024350;28;20437;-82
2021/05/26 10:51:58;;;;;;;4.10;3.70;;;12.90;1.00;;;;;;5026612;28;20430;-81
2021/05/26 10:54:59;;;;;;;5.80;4.80;;;12.90;1.00;;;;;;5037612;28;20433;-81
2021/05/26 10:57:30;;;;;;;4.10;2.70;;;12.90;1.00;;;;;;5045433;28;20658;-80
2021/05/26 11:00:24;;;;;;;3.73;3.03;;;13.00;1.00;;;;;;5016612;28;20430;-76
2021/05/26 11:03:40;;;;;;;5.90;5.30;;;13.80;1.00;;;;;;5043173;28;20409;-77
2021/05/26 11:06:34;;;;;;;5.37;3.40;;;15.80;1.00;;;;;;5035618;28;20431;-79
2021/05/26 11:09:00;;;;;;;2.70;2.50;;;18.80;1.00;;;;;;5041234;28;20448;-78
2021/05/26 11:11:47;;;;;;;3.63;2.93;;;19.50;1.00;;;;;;5041007;28;20440;-78
2021/05/26 11:14:24;;;;;;;5.00;2.20;;;18.80;1.00;;;;;;5032229;28;20465;-77
2021/05/26 11:17:19;;;;;;;3.13;1.90;;;17.70;1.00;;;;;;5031985;28;20473;-77
2021/05/26 11:19:46;;;;;;;3.00;2.30;;;16.90;1.00;;;;;;5029565;28;20490;-80
2021/05/26 11:22:14;;;;;;;4.73;2.43;;;16.50;1.00;;;;;;5030731;28;20454;-79
2021/05/26 11:24:43;;;;;;;3.30;2.20;;;16.30;1.00;;;;;;5045240;28;20419;-76
2021/05/26 11:27:17;;;;;;;6.00;2.07;;;16.50;1.00;;;;;;5026763;28;20434;-84
2021/05/26 11:29:44;;;;;;;1.50;1.40;;;18.00;1.00;;;;;;5022752;28;20493;-87
2021/05/26 11:32:13;;;;;;;2.37;1.70;;;20.10;1.00;;;;;;5042189;28;20414;-85
2021/05/26 11:34:42;;;;;;;6.57;1.80;;;22.00;1.00;;;;;;5040850;28;21149;-86
2021/05/26 11:37:10;;;;;;;2.27;1.67;;;22.80;1.00;;;;;;5040834;28;20455;-86
2021/05/26 11:39:38;;;;;;;2.30;0.97;;;22.40;1.00;;;;;;5023638;28;20472;-83
2021/05/26 11:42:08;;;;;;;1.90;0.90;;;21.90;1.00;;;;;;5040192;28;20457;-87
2021/05/26 11:44:36;;;;;;;1.67;1.13;;;20.70;1.00;;;;;;5038757;28;20474;-85
2021/05/26 11:47:04;;;;;;;1.20;0.63;;;20.40;1.00;;;;;;5026256;28;20436;-84
2021/05/26 11:49:32;;;;;;;2.00;0.90;;;20.80;1.00;;;;;;5030605;28;20426;-83
2021/05/26 11:52:04;;;;;;;1.77;0.80;;;22.50;1.00;;;;;;5025541;28;20572;-84
2021/05/26 11:54:31;;;;;;;1.50;0.73;;;24.00;1.00;;;;;;5014548;28;20494;-84
2021/05/26 11:57:03;;;;;;;2.23;1.07;;;24.20;1.00;;;;;;5033590;28;20450;-87
2021/05/26 11:59:29;;;;;;;2.87;0.77;;;24.60;1.00;;;;;;5035003;28;20471;-85
2021/05/26 12:01:57;;;;;;;0.63;0.60;;;24.90;1.00;;;;;;5016365;28;20430;-87
2021/05/26 12:04:24;;;;;;;1.83;0.70;;;25.50;1.00;;;;;;5033549;28;20405;-84
2021/05/26 12:06:50;;;;;;;0.90;0.70;;;26.00;1.00;;;;;;5031435;28;20473;-84
2021/05/26 12:09:38;;;;;;;1.83;0.90;;;25.60;1.00;;;;;;5043088;28;20425;-81
2021/05/26 12:12:17;;;;;;;1.43;0.97;;;24.40;1.00;;;;;;5056916;22;20503;-84
2021/05/26 12:14:47;;;;;;;2.50;1.73;;;24.50;1.00;;;;;;5010881;28;20445;-84
2021/05/26 12:17:15;;;;;;;2.30;0.87;;;25.90;1.00;;;;;;5013565;28;20447;-85
2021/05/26 12:19:42;;;;;;;0.90;0.60;;;27.00;1.00;;;;;;5013606;28;20455;-84
2021/05/26 12:22:15;;;;;;;0.93;0.70;;;25.70;1.00;;;;;;5016027;28;20438;-83
2021/05/26 12:24:58;;;;;;;0.80;0.53;;;24.20;1.00;;;;;;5023261;28;20434;-83
2021/05/26 12:27:32;;;;;;;1.23;0.50;;;24.90;1.00;;;;;;5013857;28;20510;-83
2021/05/26 12:30:16;;;;;;;3.03;0.70;;;25.70;1.00;;;;;;5002871;28;20548;-83
2021/05/26 12:32:43;;;;;;;0.80;0.60;;;25.50;1.00;;;;;;5007211;28;20490;-82
2021/05/26 12:35:15;;;;;;;3.93;0.60;;;25.40;1.00;;;;;;5005034;28;21355;-85
2021/05/26 12:37:43;;;;;;;2.13;0.70;;;23.40;1.00;;;;;;5006546;28;20456;-84
2021/05/26 12:40:17;;;;;;;1.73;0.40;;;22.10;1.00;;;;;;5000656;28;20450;-83
2021/05/26 12:42:46;;;;;;;0.63;0.60;;;22.40;1.00;;;;;;5003618;28;20499;-83
2021/05/26 12:45:26;;;;;;;1.20;0.57;;;22.80;1.00;;;;;;5006317;28;20425;-82
2021/05/26 12:47:54;;;;;;;1.17;0.60;;;22.70;1.00;;;;;;5013705;28;20474;-83
2021/05/26 12:50:24;;;;;;;3.13;1.23;;;22.10;1.00;;;;;;5019134;28;20468;-83
2021/05/26 12:52:53;;;;;;;2.33;0.70;;;21.20;1.00;;;;;;5007405;28;20518;-84
2021/05/26 12:55:23;;;;;;;1.33;0.60;;;20.80;1.00;;;;;;5011849;28;20438;-84
2021/05/26 12:57:50;;;;;;;0.77;0.77;;;20.80;1.00;;;;;;4991559;28;20462;-78
2021/05/26 13:00:21;;;;;;;1.10;1.00;;;21.70;1.00;;;;;;5003261;28;20463;-77
2021/05/26 13:02:49;;;;;;;2.43;0.50;;;22.40;1.00;;;;;;4995600;28;20532;-78
2021/05/26 13:05:17;;;;;;;5.07;3.87;;;23.70;1.00;;;;;;4992085;28;20467;-78
2021/05/26 13:07:46;;;;;;;1.33;0.70;;;23.60;1.00;;;;;;5001053;28;20402;-76